Time;durP1;ratioP1;P1;durP2;ratioP2;P2;SDS_P1;SDS_P2;PMS_P1;PMS_P2;Temp;Humidity;BMP_temperature;BMP_pressure;BME280_temperature;BME280_humidity;BME280_pressure;Samples;Min_cycle;Max_cycle;Signal;HPM_P1;HPM_P2
2023/02/24 05:06:33;;;;;;;;;17.00;15.80;;;;;;;;1171665;46;10001328;-58
2023/02/24 05:12:38;;;;;;;;;14.00;13.00;;;;;;;;6489189;39;8918;-60
2023/02/24 05:21:34;;;;;;;;;17.00;14.75;;;;;;;;6488644;31;8928;-59
2023/02/24 05:25:36;;;;;;;;;14.00;11.00;;;;;;;;6488653;31;8870;-59
2023/02/24 05:31:58;;;;;;;;;14.75;13.50;;;;;;;;6487043;39;8957;-60
2023/02/24 05:38:07;;;;;;;;;15.75;15.75;;;;;;;;6489058;39;9895;-59
2023/02/24 05:44:36;;;;;;;;;20.00;15.00;;;;;;;;6488464;39;9004;-59
2023/02/24 05:50:58;;;;;;;;;14.50;11.75;;;;;;;;6489375;39;10160;-60
2023/02/24 05:57:17;;;;;;;;;17.75;16.75;;;;;;;;6487845;46;9014;-61
2023/02/24 06:03:40;;;;;;;;;17.75;15.50;;;;;;;;6489541;31;8951;-59
2023/02/24 06:09:57;;;;;;;;;19.75;14.75;;;;;;;;6488586;31;9029;-58
2023/02/24 06:16:24;;;;;;;;;19.00;17.00;;;;;;;;6488292;39;9011;-59
2023/02/24 06:22:41;;;;;;;;;19.75;15.75;;;;;;;;6488675;31;8912;-59
2023/02/24 06:28:59;;;;;;;;;26.50;21.50;;;;;;;;6489743;39;8892;-58
2023/02/24 06:35:31;;;;;;;;;27.25;21.25;;;;;;;;6487536;46;9074;-60
2023/02/24 06:41:36;;;;;;;;;17.25;16.00;;;;;;;;6487551;39;8959;-60
2023/02/24 06:47:41;;;;;;;;;19.50;18.00;;;;;;;;6488591;39;8962;-61
2023/02/24 06:53:54;;;;;;;;;19.25;16.50;;;;;;;;6487326;46;8980;-59
2023/02/24 07:00:15;;;;;;;;;26.00;21.75;;;;;;;;6488720;46;8965;-60
2023/02/24 07:06:33;;;;;;;;;25.25;22.75;;;;;;;;6488430;39;8957;-61
2023/02/24 07:12:41;;;;;;;;;24.75;20.25;;;;;;;;6488531;39;9521;-60
2023/02/24 07:18:55;;;;;;;;;20.33;20.33;;;;;;;;6487715;46;8933;-60
2023/02/24 07:25:32;;;;;;;;;26.25;26.25;;;;;;;;6487798;31;8925;-60
2023/02/24 07:31:37;;;;;;;;;22.50;20.75;;;;;;;;6486879;47;8901;-60
2023/02/24 07:38:04;;;;;;;;;23.00;21.00;;;;;;;;6487176;39;9608;-60
2023/02/24 07:44:14;;;;;;;;;26.50;26.50;;;;;;;;6487039;31;9044;-60
2023/02/24 07:50:27;;;;;;;;;17.00;14.00;;;;;;;;6486319;39;8922;-62
2023/02/24 07:57:17;;;;;;;;;28.00;25.25;;;;;;;;6486406;31;9759;-62
2023/02/24 08:03:26;;;;;;;;;27.00;23.00;;;;;;;;6485496;39;8977;-61
2023/02/24 08:10:08;;;;;;;;;29.50;27.75;;;;;;;;6484135;47;8949;-59
2023/02/24 08:16:07;;;;;;;;;29.00;26.25;;;;;;;;6481410;31;9658;-60
2023/02/24 08:22:19;;;;;;;;;31.25;29.75;;;;;;;;6485485;31;8988;-59
2023/02/24 08:28:32;;;;;;;;;38.75;37.25;;;;;;;;6484637;31;8995;-59
2023/02/24 08:34:38;;;;;;;;;42.33;35.33;;;;;;;;6486268;39;8887;-58
2023/02/24 08:47:12;;;;;;;;;31.25;27.75;;;;;;;;6489140;31;8960;-61
2023/02/24 08:53:32;;;;;;;;;31.00;28.75;;;;;;;;6488647;31;9057;-59
2023/02/24 08:59:39;;;;;;;;;38.25;33.00;;;;;;;;6487797;46;8929;-59
2023/02/24 09:06:24;;;;;;;;;31.75;31.50;;;;;;;;6488118;46;9010;-60
2023/02/24 09:12:29;;;;;;;;;37.25;33.75;;;;;;;;6485724;31;8936;-58
2023/02/24 09:18:37;;;;;;;;;41.25;33.25;;;;;;;;6485011;31;8926;-59
2023/02/24 09:24:45;;;;;;;;;30.50;30.50;;;;;;;;6485873;31;9027;-59
2023/02/24 09:37:26;;;;;;;;;39.50;37.50;;;;;;;;6486615;31;8971;-61
2023/02/24 09:43:43;;;;;;;;;36.75;34.75;;;;;;;;6486921;39;8926;-60
2023/02/24 09:50:03;;;;;;;;;32.25;32.25;;;;;;;;6484900;39;8966;-62
2023/02/24 09:56:44;;;;;;;;;32.25;28.50;;;;;;;;6484218;39;8947;-61
2023/02/24 10:03:19;;;;;;;;;33.50;30.50;;;;;;;;6487492;39;8953;-60
2023/02/24 10:09:51;;;;;;;;;39.00;34.75;;;;;;;;6487241;39;8959;-60
2023/02/24 10:16:22;;;;;;;;;26.25;23.25;;;;;;;;6485853;39;8959;-59
2023/02/24 10:22:57;;;;;;;;;47.00;38.50;;;;;;;;6484535;31;8891;-61
2023/02/24 10:29:28;;;;;;;;;48.25;42.50;;;;;;;;6484213;39;9090;-60
2023/02/24 10:35:38;;;;;;;;;34.00;23.00;;;;;;;;6485166;39;8948;-61
2023/02/24 10:42:14;;;;;;;;;40.25;36.00;;;;;;;;6484981;31;9193;-60
2023/02/24 10:48:25;;;;;;;;;32.50;28.00;;;;;;;;6487779;31;8925;-60
2023/02/24 10:55:07;;;;;;;;;55.50;44.75;;;;;;;;6483538;31;8926;-59
2023/02/24 11:01:45;;;;;;;;;67.25;50.50;;;;;;;;6485428;39;9018;-60
2023/02/24 11:07:55;;;;;;;;;56.00;45.25;;;;;;;;6486786;31;8923;-60
2023/02/24 11:20:47;;;;;;;;;29.00;27.50;;;;;;;;6485150;39;8935;-59
2023/02/24 11:27:05;;;;;;;;;25.50;24.00;;;;;;;;6482328;39;8948;-59
2023/02/24 11:33:41;;;;;;;;;26.00;24.33;;;;;;;;6484189;39;8927;-61
2023/02/24 11:40:03;;;;;;;;;23.50;21.25;;;;;;;;6485001;31;9181;-60
2023/02/24 11:46:33;;;;;;;;;30.50;24.75;;;;;;;;6486721;39;8903;-59
2023/02/24 11:52:56;;;;;;;;;47.25;41.75;;;;;;;;6485320;46;8918;-60
2023/02/24 11:59:41;;;;;;;;;57.00;48.25;;;;;;;;6487653;39;9043;-61
2023/02/24 12:06:01;;;;;;;;;30.50;29.25;;;;;;;;6487370;31;9150;-62
2023/02/24 12:12:40;;;;;;;;;29.50;26.00;;;;;;;;6488764;31;8963;-60
2023/02/24 12:18:53;;;;;;;;;32.75;31.00;;;;;;;;6488532;39;9097;-61
2023/02/24 12:25:13;;;;;;;;;35.75;33.00;;;;;;;;6486059;31;8954;-60
2023/02/24 12:31:52;;;;;;;;;16.50;16.50;;;;;;;;6486133;39;8964;-60
2023/02/24 12:38:40;;;;;;;;;43.00;40.50;;;;;;;;6485231;39;9034;-60
2023/02/24 12:45:16;;;;;;;;;39.50;35.50;;;;;;;;6484251;46;8993;-60
2023/02/24 12:51:48;;;;;;;;;36.00;33.75;;;;;;;;6484804;46;8957;-60
2023/02/24 12:58:07;;;;;;;;;42.00;39.75;;;;;;;;6485751;31;8977;-63
2023/02/24 13:05:00;;;;;;;;;49.50;41.25;;;;;;;;6484706;31;9020;-61
2023/02/24 13:11:39;;;;;;;;;43.75;39.25;;;;;;;;6486182;39;8912;-61
2023/02/24 13:17:52;;;;;;;;;38.00;33.75;;;;;;;;6485006;31;8929;-60
2023/02/24 13:24:02;;;;;;;;;39.00;37.50;;;;;;;;6485941;46;8904;-62
2023/02/24 13:30:18;;;;;;;;;44.00;38.00;;;;;;;;6486375;46;8921;-59
2023/02/24 13:36:30;;;;;;;;;53.00;43.50;;;;;;;;6487191;39;9053;-61
2023/02/24 13:43:03;;;;;;;;;35.00;31.75;;;;;;;;6487317;31;9019;-61
2023/02/24 13:49:47;;;;;;;;;38.50;38.00;;;;;;;;6486604;31;8989;-64
2023/02/24 13:56:20;;;;;;;;;39.75;34.00;;;;;;;;6487577;39;8921;-61
2023/02/24 14:02:27;;;;;;;;;53.75;44.25;;;;;;;;6487138;39;9091;-58
2023/02/24 14:08:41;;;;;;;;;46.25;41.00;;;;;;;;6487801;39;8992;-61
2023/02/24 14:14:55;;;;;;;;;36.50;35.00;;;;;;;;6484641;39;8901;-60
2023/02/24 14:20:59;;;;;;;;;41.75;36.00;;;;;;;;6484684;31;9057;-60
2023/02/24 14:27:05;;;;;;;;;41.00;36.75;;;;;;;;6304501;31;10000687;-60
2023/02/24 14:33:24;;;;;;;;;45.25;42.00;;;;;;;;6484981;46;8956;-61
2023/02/24 14:39:33;;;;;;;;;34.75;34.25;;;;;;;;6486096;46;8960;-60
2023/02/24 14:45:47;;;;;;;;;40.50;37.75;;;;;;;;6484558;46;8926;-61
2023/02/24 14:52:15;;;;;;;;;36.00;34.00;;;;;;;;6486448;39;9607;-60
2023/02/24 14:58:25;;;;;;;;;35.25;29.00;;;;;;;;6485680;46;8888;-60
2023/02/24 15:04:42;;;;;;;;;43.25;37.75;;;;;;;;6487504;31;8940;-62
2023/02/24 15:10:47;;;;;;;;;45.75;40.50;;;;;;;;6486147;39;8933;-60
2023/02/24 15:16:55;;;;;;;;;42.00;35.00;;;;;;;;6486689;46;8922;-60
2023/02/24 15:23:04;;;;;;;;;36.50;33.00;;;;;;;;6486952;39;8905;-60
2023/02/24 15:29:25;;;;;;;;;37.75;35.00;;;;;;;;6488489;31;8848;-62
2023/02/24 15:35:28;;;;;;;;;34.25;30.25;;;;;;;;6489756;39;8937;-59
2023/02/24 15:41:46;;;;;;;;;34.25;29.00;;;;;;;;6489254;39;8992;-61
2023/02/24 15:47:53;;;;;;;;;37.25;31.00;;;;;;;;6490449;39;8975;-62
2023/02/24 15:54:02;;;;;;;;;36.50;33.75;;;;;;;;6489313;39;8872;-61
2023/02/24 16:00:18;;;;;;;;;34.50;31.00;;;;;;;;6489718;39;9622;-60
2023/02/24 16:06:27;;;;;;;;;38.75;33.50;;;;;;;;6488944;39;9551;-61
2023/02/24 16:13:02;;;;;;;;;36.50;32.00;;;;;;;;6488185;39;8966;-62
2023/02/24 16:19:17;;;;;;;;;48.00;42.50;;;;;;;;6488561;31;8882;-60
2023/02/24 16:25:51;;;;;;;;;43.50;39.25;;;;;;;;6488383;46;8875;-60
2023/02/24 16:32:15;;;;;;;;;48.25;41.50;;;;;;;;6488054;46;8870;-60
2023/02/24 16:38:39;;;;;;;;;47.25;42.50;;;;;;;;6488697;39;9049;-59
2023/02/24 16:45:28;;;;;;;;;51.00;44.25;;;;;;;;6489216;31;9040;-60
2023/02/24 16:51:45;;;;;;;;;52.00;45.75;;;;;;;;6487755;46;8890;-60
2023/02/24 16:58:16;;;;;;;;;46.75;41.50;;;;;;;;6488814;46;8969;-61
2023/02/24 17:04:34;;;;;;;;;63.00;48.00;;;;;;;;6488205;39;8926;-60
2023/02/24 17:11:22;;;;;;;;;51.25;43.25;;;;;;;;6488218;39;8924;-61
2023/02/24 17:17:35;;;;;;;;;43.00;41.00;;;;;;;;6487328;39;8889;-60
2023/02/24 17:23:43;;;;;;;;;52.75;45.25;;;;;;;;6487961;39;8876;-59
2023/02/24 17:30:04;;;;;;;;;52.00;41.25;;;;;;;;6487597;46;8931;-60
2023/02/24 17:36:59;;;;;;;;;44.75;42.00;;;;;;;;6489057;39;8892;-59
2023/02/24 17:43:51;;;;;;;;;55.00;43.50;;;;;;;;6488486;39;8877;-59
2023/02/24 17:50:13;;;;;;;;;53.75;44.75;;;;;;;;6488170;39;8836;-60
2023/02/24 17:56:38;;;;;;;;;51.75;44.75;;;;;;;;6487597;39;8889;-59
2023/02/24 18:02:54;;;;;;;;;59.25;48.75;;;;;;;;6487497;46;8943;-59
2023/02/24 18:09:19;;;;;;;;;52.50;43.25;;;;;;;;6487579;39;9106;-60
2023/02/24 18:15:54;;;;;;;;;49.75;41.25;;;;;;;;6488213;31;8893;-60
2023/02/24 18:22:27;;;;;;;;;46.50;44.00;;;;;;;;6488569;31;9133;-60
2023/02/24 18:28:43;;;;;;;;;47.00;43.50;;;;;;;;6488183;39;9055;-61
2023/02/24 18:35:07;;;;;;;;;51.50;45.00;;;;;;;;6486820;31;8989;-60
2023/02/24 18:41:42;;;;;;;;;52.25;44.50;;;;;;;;6488304;46;9012;-60
2023/02/24 18:48:09;;;;;;;;;52.25;45.25;;;;;;;;6487234;46;8926;-61
